createdAt,value
2023-04-21T08:44:25.053Z,77.90
2023-04-21T08:46:52.068Z,84.80
2023-04-21T08:49:20.806Z,81.90
2023-04-21T08:51:47.935Z,82.40
2023-04-21T08:54:14.616Z,80.70
2023-04-21T08:56:41.394Z,80.80
2023-04-21T08:59:08.174Z,81.20
2023-04-21T09:02:11.333Z,84.50
2023-04-21T09:04:40.208Z,85.20
2023-04-21T09:07:08.762Z,84.80
2023-04-21T09:09:56.391Z,84.90
2023-04-21T09:12:23.719Z,86.70
2023-04-21T09:14:51.380Z,87.00
2023-04-21T09:17:22.960Z,88.90
2023-04-21T09:19:49.720Z,89.10
2023-04-21T09:22:18.041Z,90.10
2023-04-21T09:24:46.925Z,90.60
2023-04-21T09:27:16.282Z,91.20
2023-04-21T09:29:48.416Z,91.90
2023-04-21T09:32:19.525Z,92.70
2023-04-21T09:34:46.708Z,93.70
2023-04-21T09:37:17.274Z,94.30
2023-04-21T09:40:03.467Z,95.40
2023-04-21T09:42:32.734Z,98.60
2023-04-21T09:45:10.934Z,99.90
2023-04-21T09:47:53.141Z,99.90
2023-04-21T09:50:39.356Z,99.90
2023-04-21T09:53:15.288Z,99.90
2023-04-21T09:55:42.417Z,99.90
2023-04-21T09:58:12.734Z,99.90
2023-04-21T10:00:41.042Z,99.90
2023-04-21T10:03:12.120Z,99.90
2023-04-21T10:05:42.065Z,99.90
2023-04-21T10:08:11.720Z,99.90
2023-04-21T10:10:39.575Z,99.90
2023-04-21T10:13:07.026Z,99.90
2023-04-21T10:15:42.247Z,99.90
2023-04-21T10:18:25.165Z,99.90
2023-04-21T10:20:54.776Z,99.90
2023-04-21T10:23:37.852Z,99.90
2023-04-21T10:26:09.894Z,99.90
2023-04-21T10:29:09.560Z,99.90
2023-04-21T10:31:55.335Z,99.90
2023-04-21T10:34:36.508Z,99.90
2023-04-21T10:37:06.306Z,99.90
2023-04-21T10:39:51.387Z,99.90
2023-04-21T10:42:30.036Z,99.90
2023-04-21T10:44:56.744Z,99.90
2023-04-21T10:47:31.502Z,99.90
2023-04-21T10:49:59.238Z,99.90
2023-04-21T10:52:33.625Z,99.90
2023-04-21T10:55:07.365Z,99.90
2023-04-21T10:57:35.548Z,99.90
2023-04-21T11:00:06.206Z,99.90
2023-04-21T11:02:38.329Z,99.90
2023-04-21T11:05:08.922Z,99.90
2023-04-21T11:07:35.671Z,99.90
2023-04-21T11:10:07.857Z,99.90
2023-04-21T11:12:38.055Z,99.90
2023-04-21T11:15:07.664Z,99.90
2023-04-21T11:17:35.460Z,99.90
2023-04-21T11:20:04.546Z,99.90
2023-04-21T11:22:31.234Z,99.90
2023-04-21T11:24:58.742Z,99.90
2023-04-21T11:27:30.849Z,99.90
2023-04-21T11:29:57.627Z,99.90
2023-04-21T11:32:24.698Z,99.90
2023-04-21T11:34:51.625Z,99.90
2023-04-21T11:37:27.946Z,99.90
2023-04-21T11:39:59.539Z,99.90
2023-04-21T11:42:26.378Z,99.90
2023-04-21T11:44:57.909Z,99.00
2023-04-21T11:47:26.814Z,99.00
2023-04-21T11:49:56.339Z,98.90
2023-04-21T11:52:33.041Z,99.40
2023-04-21T11:55:19.936Z,99.00
2023-04-21T11:57:46.796Z,97.90
2023-04-21T12:00:14.539Z,97.20
2023-04-21T12:02:41.719Z,97.50
2023-04-21T12:05:11.380Z,97.30
2023-04-21T12:07:40.948Z,96.90
2023-04-21T12:10:16.897Z,96.10
2023-04-21T12:12:44.260Z,95.50
2023-04-21T12:15:12.969Z,94.90
2023-04-21T12:17:44.192Z,94.60
2023-04-21T12:20:11.124Z,94.70
2023-04-21T12:22:37.797Z,93.90
2023-04-21T12:25:05.855Z,93.90
2023-04-21T12:27:32.710Z,93.70
2023-04-21T12:29:59.423Z,92.70
2023-04-21T12:32:26.459Z,92.20
2023-04-21T12:34:53.207Z,92.90
2023-04-21T12:37:19.998Z,93.60
2023-04-21T12:39:46.718Z,92.80
2023-04-21T12:42:13.385Z,92.60
2023-04-21T12:44:40.651Z,93.40
2023-04-21T12:47:07.543Z,93.20
2023-04-21T12:49:34.273Z,92.90
2023-04-21T12:52:01.060Z,92.70
2023-04-21T12:54:27.814Z,92.80
2023-04-21T12:56:54.516Z,92.70
2023-04-21T12:59:21.541Z,93.10
2023-04-21T13:01:48.409Z,93.00
2023-04-21T13:04:15.458Z,92.90
2023-04-21T13:06:42.278Z,92.90
2023-04-21T13:09:09.047Z,92.70
2023-04-21T13:11:35.818Z,92.10
2023-04-21T13:14:04.078Z,92.30
2023-04-21T13:16:31.471Z,92.20
2023-04-21T13:18:58.384Z,91.10
2023-04-21T13:21:25.079Z,91.20
2023-04-21T13:23:51.868Z,91.30
2023-04-21T13:26:18.814Z,91.20
2023-04-21T13:31:14.478Z,90.20
2023-04-21T13:33:42.097Z,90.50
2023-04-21T13:36:12.564Z,90.90
2023-04-21T13:38:40.866Z,90.80
2023-04-21T13:41:08.246Z,91.00
2023-04-21T13:43:35.184Z,90.10
2023-04-21T13:46:02.154Z,90.40
2023-04-21T13:48:29.800Z,90.10
2023-04-21T13:50:56.719Z,89.00
2023-04-21T13:53:23.441Z,90.30
2023-04-21T13:55:50.718Z,90.10
2023-04-21T13:58:17.890Z,90.40
2023-04-21T14:00:44.765Z,90.10
2023-04-21T14:03:11.901Z,90.10
2023-04-21T14:05:39.333Z,90.50
2023-04-21T14:08:06.329Z,90.20
2023-04-21T14:10:33.043Z,90.50
2023-04-21T14:12:59.945Z,90.40
2023-04-21T14:15:27.022Z,90.40
2023-04-21T14:17:53.921Z,90.60
2023-04-21T14:20:21.250Z,90.60
2023-04-21T14:22:48.195Z,91.00
2023-04-21T14:25:15.050Z,90.60
2023-04-21T14:27:42.008Z,91.20
2023-04-21T14:30:10.590Z,91.30
2023-04-21T14:32:37.510Z,91.40
2023-04-21T14:35:05.624Z,91.30
2023-04-21T14:37:33.181Z,91.00
2023-04-21T14:40:00.042Z,90.80
2023-04-21T14:42:26.835Z,90.70
2023-04-21T14:44:53.701Z,90.80
2023-04-21T14:47:21.639Z,90.80
2023-04-21T14:49:53.951Z,90.80
2023-04-21T14:52:24.668Z,90.60
2023-04-21T14:54:51.500Z,90.70
2023-04-21T14:57:21.129Z,91.20
2023-04-21T14:59:50.330Z,92.10
2023-04-21T15:02:17.633Z,92.40
2023-04-21T15:04:44.734Z,92.50
2023-04-21T15:07:11.873Z,92.60
2023-04-21T15:09:39.243Z,92.90
2023-04-21T15:12:06.336Z,93.10
2023-04-21T15:14:33.288Z,93.60
2023-04-21T15:17:00.042Z,93.40
2023-04-21T15:19:26.881Z,93.70
2023-04-21T15:21:53.612Z,93.80
2023-04-21T15:24:20.445Z,94.30
2023-04-21T15:26:47.186Z,94.70
2023-04-21T15:29:14.058Z,95.40
2023-04-21T15:31:41.078Z,96.10
2023-04-21T15:34:08.174Z,99.40
2023-04-21T15:36:35.012Z,99.90
2023-04-21T15:39:01.698Z,99.90
2023-04-21T15:41:31.139Z,99.90
2023-04-21T15:44:01.028Z,99.90
2023-04-21T15:46:27.950Z,99.90
2023-04-21T15:48:54.707Z,99.90
2023-04-21T15:51:21.502Z,99.90
2023-04-21T15:53:49.354Z,99.90
2023-04-21T15:56:17.100Z,99.90
2023-04-21T15:58:43.808Z,99.90
2023-04-21T16:01:10.766Z,99.90
2023-04-21T16:03:37.899Z,99.90
2023-04-21T16:13:28.109Z,99.90
2023-04-21T16:15:54.958Z,99.90
2023-04-21T16:18:21.921Z,99.90
2023-04-21T16:30:43.284Z,99.90
2023-04-21T16:33:11.372Z,99.90
2023-04-21T16:35:39.122Z,99.90
2023-04-21T16:38:06.399Z,99.90
2023-04-21T16:40:33.619Z,99.90
2023-04-21T16:43:00.469Z,99.90
2023-04-21T16:45:28.760Z,99.90
2023-04-21T16:47:55.806Z,99.90
2023-04-21T16:50:22.796Z,99.90
2023-04-21T16:52:49.606Z,99.90
2023-04-21T16:55:16.443Z,99.90
2023-04-21T16:57:43.171Z,99.90
2023-04-21T17:00:10.651Z,99.90
2023-04-21T17:02:37.590Z,99.90
2023-04-21T17:05:05.088Z,99.90
2023-04-21T17:07:32.111Z,99.90
2023-04-21T17:09:59.037Z,99.90
2023-04-21T17:12:25.879Z,99.90
2023-04-21T17:14:52.602Z,99.90
2023-04-21T17:17:19.380Z,99.90
2023-04-21T17:19:46.157Z,99.90
2023-04-21T17:22:12.815Z,99.90
2023-04-21T17:24:51.898Z,99.90
2023-04-21T17:27:20.232Z,99.90
2023-04-21T17:29:47.141Z,99.90
2023-04-21T17:32:14.491Z,99.90
2023-04-21T17:34:41.377Z,99.90
2023-04-21T17:37:08.232Z,99.90
2023-04-21T17:39:34.954Z,99.90
2023-04-21T17:42:02.594Z,99.90
2023-04-21T17:44:29.547Z,99.90
2023-04-21T17:46:56.661Z,99.90
2023-04-21T17:49:24.818Z,99.90
2023-04-21T17:51:51.826Z,99.90
2023-04-21T17:54:18.666Z,99.90
2023-04-21T17:56:46.352Z,99.90
2023-04-21T17:59:13.451Z,99.90
2023-04-21T18:01:40.733Z,99.90
2023-04-21T18:04:07.954Z,99.90
2023-04-21T18:06:35.718Z,99.90
2023-04-21T18:09:04.405Z,99.90
2023-04-21T18:11:31.242Z,99.90
2023-04-21T18:13:57.948Z,99.90
2023-04-21T18:16:25.539Z,99.90
2023-04-21T18:18:52.369Z,99.90
2023-04-21T18:21:19.199Z,99.90
2023-04-21T18:23:45.905Z,99.90
2023-04-21T18:26:12.576Z,99.90
2023-04-21T18:28:39.313Z,99.90
2023-04-21T18:31:06.137Z,99.90
2023-04-21T18:33:32.971Z,99.90
2023-04-21T18:35:59.688Z,99.90
2023-04-21T18:38:26.366Z,99.90
2023-04-21T18:40:53.131Z,99.90
2023-04-21T18:43:19.940Z,99.90
2023-04-21T18:45:48.043Z,99.90
2023-04-21T18:48:14.822Z,99.90
2023-04-21T18:50:41.695Z,99.90
2023-04-21T18:53:08.868Z,99.90
2023-04-21T18:55:36.508Z,99.90
2023-04-21T18:58:03.488Z,99.90
2023-04-21T19:00:32.070Z,99.90
2023-04-21T19:03:02.533Z,99.90
2023-04-21T19:05:31.468Z,99.90
2023-04-21T19:07:58.637Z,99.90
2023-04-21T19:10:26.102Z,99.90
2023-04-21T19:12:53.056Z,99.90
2023-04-21T19:15:21.372Z,99.90
2023-04-21T19:17:48.123Z,99.90
2023-04-21T19:20:14.848Z,99.90
2023-04-21T19:22:42.033Z,99.90
2023-04-21T19:25:09.290Z,99.90
2023-04-21T19:27:36.526Z,99.90
2023-04-21T19:30:05.035Z,99.90
2023-04-21T19:32:31.880Z,99.90
2023-04-21T19:34:58.668Z,99.90
2023-04-21T19:37:26.455Z,99.90
2023-04-21T19:39:53.300Z,99.90
2023-04-21T19:42:19.998Z,99.90
2023-04-21T19:44:46.654Z,99.90
2023-04-21T19:47:13.592Z,99.90
2023-04-21T19:49:40.413Z,99.90
2023-04-21T19:52:07.101Z,99.90
2023-04-21T19:54:33.817Z,99.90
2023-04-21T19:57:01.411Z,99.90
2023-04-21T19:59:28.118Z,99.90
2023-04-21T20:01:55.248Z,99.90
2023-04-21T20:04:22.241Z,99.90
2023-04-21T20:06:49.058Z,99.90
2023-04-21T20:09:16.100Z,99.90
2023-04-21T20:11:42.901Z,99.90
2023-04-21T20:14:09.570Z,99.90
2023-04-21T20:16:37.067Z,99.90
2023-04-21T20:19:04.578Z,99.90
2023-04-21T20:21:32.350Z,99.90
2023-04-21T20:23:59.083Z,99.90
2023-04-21T20:26:25.963Z,99.90
2023-04-21T20:28:52.656Z,99.90
2023-04-21T20:31:24.020Z,99.90
2023-04-21T20:33:51.136Z,99.90
2023-04-21T20:36:18.410Z,99.90
2023-04-21T20:38:46.491Z,99.90
2023-04-21T20:41:13.490Z,99.90
2023-04-21T20:43:40.397Z,99.90
2023-04-21T20:46:08.827Z,99.90
2023-04-21T20:48:35.907Z,99.90
2023-04-21T20:51:02.762Z,99.90
2023-04-21T20:53:29.475Z,99.90
2023-04-21T20:55:56.284Z,99.90
2023-04-21T20:58:24.721Z,99.90
2023-04-21T21:00:51.579Z,99.90
2023-04-21T21:03:20.275Z,99.90
2023-04-21T21:05:47.505Z,99.90
2023-04-21T21:08:15.202Z,99.90
2023-04-21T21:10:42.113Z,99.90
2023-04-21T21:13:08.845Z,99.90
2023-04-21T21:15:35.878Z,99.90
2023-04-21T21:18:02.929Z,99.90
2023-04-21T21:20:29.708Z,99.90
2023-04-21T21:22:56.548Z,99.90
2023-04-21T21:25:23.325Z,99.90
2023-04-21T21:27:50.059Z,99.90
2023-04-21T21:30:16.841Z,99.90
2023-04-21T21:32:43.637Z,99.90
2023-04-21T21:35:11.802Z,99.90
2023-04-21T21:37:38.936Z,99.90
2023-04-21T21:40:06.899Z,99.90
2023-04-21T21:42:33.595Z,99.90
2023-04-21T21:45:00.963Z,99.90
2023-04-21T21:47:27.856Z,99.90
2023-04-21T21:49:55.952Z,99.90
2023-04-21T21:52:22.855Z,99.90
2023-04-21T21:54:49.631Z,99.90
2023-04-21T21:57:16.844Z,99.90
2023-04-21T21:59:43.856Z,99.90
2023-04-21T22:02:10.736Z,99.90
2023-04-21T22:04:37.908Z,99.90
2023-04-21T22:07:05.143Z,99.90
2023-04-21T22:09:32.035Z,99.90
2023-04-21T22:11:59.687Z,99.90
2023-04-21T22:14:26.652Z,99.90
2023-04-21T22:16:53.898Z,99.90
2023-04-21T22:19:20.979Z,99.90
2023-04-21T22:21:47.999Z,99.90
2023-04-21T22:24:14.956Z,99.90
2023-04-21T22:26:43.081Z,99.90
2023-04-21T22:29:10.336Z,99.90
2023-04-21T22:31:37.932Z,99.90
2023-04-21T22:34:04.911Z,99.90
2023-04-21T22:36:32.652Z,99.90
2023-04-21T22:38:59.600Z,99.90
2023-04-21T22:41:27.378Z,99.90
2023-04-21T22:43:54.267Z,99.90
2023-04-21T22:46:21.016Z,99.90
2023-04-21T22:48:48.425Z,99.90
2023-04-21T22:51:15.164Z,99.90
2023-04-21T22:53:41.813Z,99.90
2023-04-21T22:56:08.493Z,99.90
2023-04-21T22:58:35.890Z,99.90
2023-04-21T23:01:02.877Z,99.90
2023-04-21T23:03:31.116Z,99.90
2023-04-21T23:05:58.478Z,99.90
2023-04-21T23:08:25.211Z,99.90
2023-04-21T23:10:52.611Z,99.90
2023-04-21T23:13:19.637Z,99.90
2023-04-21T23:15:46.364Z,99.90
2023-04-21T23:18:13.047Z,99.90
2023-04-21T23:20:39.796Z,99.90
2023-04-21T23:23:06.521Z,99.90
2023-04-21T23:25:33.257Z,99.90
2023-04-21T23:28:00.059Z,99.90
2023-04-21T23:30:26.853Z,99.90
2023-04-21T23:52:36.357Z,99.90
